Reecon Emir — 9HA3644 — position and weather

sailwx.info

Track history (hours):
 
Tides and Currents Weather Stations Pressure Air Temp Water Temp Dewpoint Dewpoint Depression Visibility Wind Speed Wind Dir Waves Ship Positions

Reecon Emir

Last reported at 2017-Dec-11 17:01 UTC. Time now 2017-Dec-12 00:26 UTC.
Position N 37°53' E 023°33'.

Length 146 m; draft 6.8 m.

Type: Cargo ship. MMSI: 229825000.

Date/timePositionNaut miles runAvg speedWind from/ knotsBaromVisibWave heightAir tempDewpointWater temp
2017-Dec-11 17:01N 37°53' E 023°33'0 0.2
2017-Dec-11 16:30N 37°53' E 023°33'0 0.0
2017-Dec-11 16:00N 37°53' E 023°33'0 0.0
2017-Dec-11 15:30N 37°53' E 023°33'0 0.0
2017-Dec-11 15:00N 37°53' E 023°33'0 0.0
2017-Dec-11 14:30N 37°53' E 023°33'0 0.1
2017-Dec-11 14:00N 37°53' E 023°33'0 0.0
2017-Dec-11 13:30N 37°53' E 023°33'0 0.1
2017-Dec-11 13:00N 37°53' E 023°33'0 0.3
2017-Dec-11 12:30N 37°53' E 023°34'2 4.5
2017-Dec-11 12:01N 37°52' E 023°36'4 8.7
2017-Dec-11 11:30N 37°49' E 023°40'5 9.0
2017-Dec-11 11:00N 37°45' E 023°43'4 8.2
2017-Dec-11 10:30N 37°41' E 023°45'4 8.1
2017-Dec-11 10:00N 37°39' E 023°49'4 8.3
2017-Dec-11 09:30N 37°37' E 023°54'4 8.7
2017-Dec-11 09:00N 37°37' E 023°59'4 8.5
2017-Dec-11 08:30N 37°37' E 024°04'12 8.2
2017-Dec-11 07:02N 37°43' E 024°18'1 8.8
2017-Dec-11 06:58N 37°44' E 024°18'4 8.2
2017-Dec-11 06:30N 37°46' E 024°22'4 8.7
2017-Dec-11 06:00N 37°49' E 024°26'4 8.8
2017-Dec-11 05:30N 37°51' E 024°31'4 7.9
2017-Dec-11 05:00N 37°54' E 024°34'4 8.0
2017-Dec-11 04:30N 37°58' E 024°36'4 7.8
2017-Dec-11 04:00N 38°02' E 024°38'18 8.0
2017-Dec-11 01:46N 38°20' E 024°36'3 8.8
2017-Dec-11 01:23N 38°23' E 024°34'3 8.9
2017-Dec-11 01:00N 38°25' E 024°32'4 8.9
2017-Dec-11 00:30N 38°29' E 024°29'27 8.9
2017-Dec-10 21:29N 38°49' E 024°06'2 0.1
2017-Dec-08 23:31N 38°47' E 024°04'012.5
2017-Dec-08 23:30N 38°47' E 024°04'5211.8
2017-Dec-08 19:06N 38°02' E 024°37'113.4
2017-Dec-08 19:00N 38°01' E 024°36'612.8
2017-Dec-08 18:30N 37°55' E 024°34'612.6
2017-Dec-08 18:00N 37°51' E 024°28'612.2
2017-Dec-08 17:30N 37°47' E 024°22'812.8
2017-Dec-08 16:51N 37°42' E 024°14'412.7
2017-Dec-08 16:31N 37°39' E 024°09'612.5
2017-Dec-08 16:00N 37°38' E 024°01'713.2
2017-Dec-08 15:30N 37°38' E 023°53'713.0
2017-Dec-08 15:00N 37°39' E 023°45'611.9
2017-Dec-08 14:31N 37°43' E 023°40'713.9
2017-Dec-08 14:01N 37°50' E 023°37'612.1
2017-Dec-08 13:31N 37°56' E 023°37'2 3.6
2017-Dec-08 12:59N 37°57' E 023°35'0 0.0
2017-Dec-08 12:30N 37°57' E 023°35'0 0.0
2017-Dec-08 12:00N 37°57' E 023°35'0 0.0
2017-Dec-08 11:30N 37°57' E 023°35'0 0.0
2017-Dec-08 10:59N 37°57' E 023°35'0 0.0
2017-Dec-08 10:30N 37°57' E 023°35'0 0.0
2017-Dec-08 10:00N 37°57' E 023°35'0 0.0
2017-Dec-08 09:29N 37°57' E 023°35'0 0.0
2017-Dec-08 09:00N 37°57' E 023°35'0 0.0
2017-Dec-08 08:30N 37°57' E 023°35'0 0.0
2017-Dec-08 08:00N 37°57' E 023°35'0 0.0
2017-Dec-08 07:30N 37°57' E 023°35'0 0.0
2017-Dec-08 07:00N 37°57' E 023°35'0 0.0
2017-Dec-08 06:30N 37°57' E 023°35'0 0.0
2017-Dec-08 06:00N 37°57' E 023°35'0 0.0
2017-Dec-08 05:30N 37°57' E 023°35'0 0.0
2017-Dec-08 05:00N 37°57' E 023°35'0 0.0
2017-Dec-08 04:30N 37°57' E 023°35'0 0.0
2017-Dec-08 04:00N 37°57' E 023°35'0 0.0
2017-Dec-08 03:30N 37°57' E 023°35'0 0.0
2017-Dec-08 03:00N 37°57' E 023°35'0 0.0
2017-Dec-08 02:30N 37°57' E 023°35'0 0.0
2017-Dec-08 02:00N 37°57' E 023°35'0 0.0
2017-Dec-08 01:30N 37°57' E 023°35'0 0.0
2017-Dec-08 01:00N 37°57' E 023°35'0 0.0
2017-Dec-08 00:29N 37°57' E 023°35'0 0.0
2017-Dec-08 00:00N 37°57' E 023°35'0 0.0
2017-Dec-07 23:30N 37°57' E 023°35'2 4.2
2017-Dec-07 23:00N 37°55' E 023°37'0 0.8
2017-Dec-07 22:30N 37°55' E 023°37'0 0.8
2017-Dec-07 22:00N 37°55' E 023°36'1 1.7
2017-Dec-07 21:30N 37°54' E 023°35'2 4.0
2017-Dec-07 21:00N 37°53' E 023°33'2 2.9
2017-Dec-07 20:29N 37°52' E 023°32'0 0.0
2017-Dec-07 19:59N 37°52' E 023°32'0 0.0
2017-Dec-07 19:29N 37°52' E 023°32'0 0.1
2017-Dec-07 18:59N 37°52' E 023°32'0 0.0
2017-Dec-07 18:29N 37°52' E 023°32'0 0.0
2017-Dec-07 17:59N 37°52' E 023°32'0 0.0
2017-Dec-07 17:29N 37°52' E 023°32'0 0.0
2017-Dec-07 16:59N 37°52' E 023°32'0 0.0
2017-Dec-07 16:29N 37°52' E 023°32'0 0.0
2017-Dec-07 15:59N 37°52' E 023°32'0 0.0
2017-Dec-07 15:29N 37°52' E 023°32'0 0.0
2017-Dec-07 14:59N 37°52' E 023°32'0 0.1
2017-Dec-07 14:29N 37°52' E 023°32'0 0.0
2017-Dec-07 13:59N 37°52' E 023°32'0 0.0
2017-Dec-07 13:29N 37°52' E 023°32'0 0.1
2017-Dec-07 12:59N 37°52' E 023°32'0 0.0
2017-Dec-07 12:29N 37°52' E 023°32'0 0.0
2017-Dec-07 11:59N 37°52' E 023°32'0 0.0
2017-Dec-07 11:29N 37°52' E 023°32'0 0.0
2017-Dec-07 10:59N 37°52' E 023°32'0 0.1
2017-Dec-07 10:29N 37°52' E 023°32'0 0.0
2017-Dec-07 09:59N 37°52' E 023°32'0 0.0
2017-Dec-07 09:29N 37°52' E 023°32'0 0.0
2017-Dec-07 08:59N 37°52' E 023°32'0 0.0
2017-Dec-07 08:29N 37°52' E 023°32'0 0.2
2017-Dec-07 07:59N 37°52' E 023°32'0 0.1
2017-Dec-07 07:29N 37°52' E 023°32'0 0.0
2017-Dec-07 06:59N 37°52' E 023°32'0 0.0
2017-Dec-07 06:29N 37°52' E 023°32'0 0.0
2017-Dec-07 05:59N 37°52' E 023°32'0 0.0
2017-Dec-07 05:29N 37°52' E 023°32'0 0.1
2017-Dec-07 04:59N 37°52' E 023°32'0 0.0
2017-Dec-07 04:29N 37°52' E 023°32'0 0.0
2017-Dec-07 03:59N 37°52' E 023°32'0 0.1
2017-Dec-07 03:29N 37°52' E 023°32'0 0.0
2017-Dec-07 02:59N 37°52' E 023°32'0 0.0
2017-Dec-07 02:29N 37°52' E 023°32'0 0.1
2017-Dec-07 01:59N 37°52' E 023°32'0 0.1
2017-Dec-07 01:29N 37°52' E 023°32'0 0.0
2017-Dec-07 00:59N 37°52' E 023°32'0 0.0
2017-Dec-07 00:29N 37°52' E 023°32'0 0.0
2017-Dec-06 23:59N 37°52' E 023°32'0 0.0
2017-Dec-06 23:29N 37°52' E 023°32'0 0.0
2017-Dec-06 22:59N 37°52' E 023°32'0 0.0
2017-Dec-06 22:29N 37°52' E 023°32'0 0.0
2017-Dec-06 21:59N 37°52' E 023°32'0 0.0
2017-Dec-06 21:29N 37°52' E 023°32'0 0.0
2017-Dec-06 20:59N 37°52' E 023°32'  
2017-Dec-03 03:49N 38°08' E 025°46'412.4
2017-Dec-03 03:28N 38°04' E 025°46'612.2
2017-Dec-03 03:00N 37°58' E 025°46'612.5
2017-Dec-03 02:30N 37°52' E 025°46'612.9
2017-Dec-03 02:00N 37°45' E 025°45'712.8
2017-Dec-03 01:30N 37°39' E 025°45'612.6
2017-Dec-03 01:00N 37°33' E 025°45'712.3
2017-Dec-03 00:27N 37°26' E 025°45'512.0
2017-Dec-03 00:00N 37°21' E 025°44'611.8
2017-Dec-02 23:30N 37°15' E 025°45'612.2
2017-Dec-02 23:00N 37°09' E 025°45'612.3
2017-Dec-02 22:30N 37°02' E 025°44'612.4
2017-Dec-02 22:00N 36°56' E 025°44'612.6
2017-Dec-02 21:30N 36°50' E 025°43'612.3
2017-Dec-02 21:00N 36°44' E 025°40'612.0
2017-Dec-02 20:30N 36°39' E 025°37'612.1
2017-Dec-02 20:00N 36°33' E 025°36'612.2
2017-Dec-02 19:30N 36°27' E 025°35'612.4
2017-Dec-02 19:00N 36°21' E 025°34'612.4
2017-Dec-02 18:30N 36°15' E 025°32'612.3
2017-Dec-02 18:01N 36°09' E 025°29'612.1
2017-Dec-02 17:30N 36°03' E 025°26'611.2
2017-Dec-02 17:00N 35°58' E 025°23'611.4
2017-Dec-02 16:30N 35°53' E 025°21'611.7
2017-Dec-02 16:00N 35°47' E 025°18'611.8
2017-Dec-02 15:30N 35°42' E 025°16'611.8
2017-Dec-02 15:00N 35°36' E 025°13'612.3
2017-Dec-02 14:30N 35°31' E 025°10'612.0
2017-Dec-02 14:00N 35°25' E 025°09'4 8.4
2017-Dec-02 13:30N 35°21' E 025°09'0 0.1
2017-Dec-02 12:55N 35°21' E 025°09'0 0.0
2017-Dec-02 12:28N 35°21' E 025°09'0 0.0
2017-Dec-02 11:58N 35°21' E 025°09'0 0.0
2017-Dec-02 11:28N 35°21' E 025°09'0 0.0
2017-Dec-02 10:58N 35°21' E 025°09'0 0.0
2017-Dec-02 10:28N 35°21' E 025°09'0 0.0
2017-Dec-02 09:55N 35°21' E 025°09'0 0.0
2017-Dec-02 09:25N 35°21' E 025°09'0 0.0
2017-Dec-02 08:58N 35°21' E 025°09'0 0.0
2017-Dec-02 08:28N 35°21' E 025°09'0 0.0
2017-Dec-02 07:58N 35°21' E 025°09'0 0.0
2017-Dec-02 07:28N 35°21' E 025°09'0 0.0
2017-Dec-02 06:58N 35°21' E 025°09'0 0.0
2017-Dec-02 06:22N 35°21' E 025°09'0 0.0
2017-Dec-02 05:52N 35°21' E 025°09'0 0.0
2017-Dec-02 05:28N 35°21' E 025°09'0 0.0
2017-Dec-02 04:58N 35°21' E 025°09'0 0.0
2017-Dec-02 04:28N 35°21' E 025°09'0 0.0
2017-Dec-02 03:58N 35°21' E 025°09'0 0.0
2017-Dec-02 03:28N 35°21' E 025°09'0 0.0
2017-Dec-02 02:58N 35°21' E 025°09'0 0.0
2017-Dec-02 02:25N 35°21' E 025°09'0 0.0
2017-Dec-02 01:55N 35°21' E 025°09'0 0.0
2017-Dec-02 01:22N 35°21' E 025°09'0 0.0
2017-Dec-02 00:58N 35°21' E 025°09'0 0.0
2017-Dec-02 00:16N 35°21' E 025°09'0 0.0
2017-Dec-01 23:58N 35°21' E 025°09'0 0.0
2017-Dec-01 23:28N 35°21' E 025°09'0 0.0
2017-Dec-01 22:58N 35°21' E 025°09'0 0.0
2017-Dec-01 22:28N 35°21' E 025°09'0 0.0
2017-Dec-01 21:58N 35°21' E 025°09'0 0.0
2017-Dec-01 21:28N 35°21' E 025°09'0 0.0
2017-Dec-01 20:58N 35°21' E 025°09'0 0.0
2017-Dec-01 20:28N 35°21' E 025°09'0 0.0
2017-Dec-01 19:58N 35°21' E 025°09'0 0.0
2017-Dec-01 19:28N 35°21' E 025°09'0 0.0
2017-Dec-01 18:58N 35°21' E 025°09'0 0.0
2017-Dec-01 18:28N 35°21' E 025°09'0 0.0
2017-Dec-01 17:55N 35°21' E 025°09'0 0.0
2017-Dec-01 17:25N 35°21' E 025°09'  
Track history (hours):
 
Tides and Currents Weather Stations Pressure Air Temp Water Temp Dewpoint Dewpoint Depression Visibility Wind Speed Wind Dir Waves Ship Positions

Reecon Emir

Last reported at 2017-Dec-11 17:01 UTC. Time now 2017-Dec-12 00:26 UTC.
Position N 37°53' E 023°33'.

Length 146 m; draft 6.8 m.

Type: Cargo ship. MMSI: 229825000.

Date/timePositionNaut miles runAvg speedWind from/ knotsBaromVisibWave heightAir tempDewpointWater temp
2017-Dec-11 17:01N 37°53' E 023°33'0 0.2
2017-Dec-11 16:30N 37°53' E 023°33'0 0.0
2017-Dec-11 16:00N 37°53' E 023°33'0 0.0
2017-Dec-11 15:30N 37°53' E 023°33'0 0.0
2017-Dec-11 15:00N 37°53' E 023°33'0 0.0
2017-Dec-11 14:30N 37°53' E 023°33'0 0.1
2017-Dec-11 14:00N 37°53' E 023°33'0 0.0
2017-Dec-11 13:30N 37°53' E 023°33'0 0.1
2017-Dec-11 13:00N 37°53' E 023°33'0 0.3
2017-Dec-11 12:30N 37°53' E 023°34'2 4.5
2017-Dec-11 12:01N 37°52' E 023°36'4 8.7
2017-Dec-11 11:30N 37°49' E 023°40'5 9.0
2017-Dec-11 11:00N 37°45' E 023°43'4 8.2
2017-Dec-11 10:30N 37°41' E 023°45'4 8.1
2017-Dec-11 10:00N 37°39' E 023°49'4 8.3
2017-Dec-11 09:30N 37°37' E 023°54'4 8.7
2017-Dec-11 09:00N 37°37' E 023°59'4 8.5
2017-Dec-11 08:30N 37°37' E 024°04'12 8.2
2017-Dec-11 07:02N 37°43' E 024°18'1 8.8
2017-Dec-11 06:58N 37°44' E 024°18'4 8.2
2017-Dec-11 06:30N 37°46' E 024°22'4 8.7
2017-Dec-11 06:00N 37°49' E 024°26'4 8.8
2017-Dec-11 05:30N 37°51' E 024°31'4 7.9
2017-Dec-11 05:00N 37°54' E 024°34'4 8.0
2017-Dec-11 04:30N 37°58' E 024°36'4 7.8
2017-Dec-11 04:00N 38°02' E 024°38'18 8.0
2017-Dec-11 01:46N 38°20' E 024°36'3 8.8
2017-Dec-11 01:23N 38°23' E 024°34'3 8.9
2017-Dec-11 01:00N 38°25' E 024°32'4 8.9
2017-Dec-11 00:30N 38°29' E 024°29'27 8.9
2017-Dec-10 21:29N 38°49' E 024°06'2 0.1
2017-Dec-08 23:31N 38°47' E 024°04'012.5
2017-Dec-08 23:30N 38°47' E 024°04'5211.8
2017-Dec-08 19:06N 38°02' E 024°37'113.4
2017-Dec-08 19:00N 38°01' E 024°36'612.8
2017-Dec-08 18:30N 37°55' E 024°34'612.6
2017-Dec-08 18:00N 37°51' E 024°28'612.2
2017-Dec-08 17:30N 37°47' E 024°22'812.8
2017-Dec-08 16:51N 37°42' E 024°14'412.7
2017-Dec-08 16:31N 37°39' E 024°09'612.5
2017-Dec-08 16:00N 37°38' E 024°01'713.2
2017-Dec-08 15:30N 37°38' E 023°53'713.0
2017-Dec-08 15:00N 37°39' E 023°45'611.9
2017-Dec-08 14:31N 37°43' E 023°40'713.9
2017-Dec-08 14:01N 37°50' E 023°37'612.1
2017-Dec-08 13:31N 37°56' E 023°37'2 3.6
2017-Dec-08 12:59N 37°57' E 023°35'0 0.0
2017-Dec-08 12:30N 37°57' E 023°35'0 0.0
2017-Dec-08 12:00N 37°57' E 023°35'0 0.0
2017-Dec-08 11:30N 37°57' E 023°35'0 0.0
2017-Dec-08 10:59N 37°57' E 023°35'0 0.0
2017-Dec-08 10:30N 37°57' E 023°35'0 0.0
2017-Dec-08 10:00N 37°57' E 023°35'0 0.0
2017-Dec-08 09:29N 37°57' E 023°35'0 0.0
2017-Dec-08 09:00N 37°57' E 023°35'0 0.0
2017-Dec-08 08:30N 37°57' E 023°35'0 0.0
2017-Dec-08 08:00N 37°57' E 023°35'0 0.0
2017-Dec-08 07:30N 37°57' E 023°35'0 0.0
2017-Dec-08 07:00N 37°57' E 023°35'0 0.0
2017-Dec-08 06:30N 37°57' E 023°35'0 0.0
2017-Dec-08 06:00N 37°57' E 023°35'0 0.0
2017-Dec-08 05:30N 37°57' E 023°35'0 0.0
2017-Dec-08 05:00N 37°57' E 023°35'0 0.0
2017-Dec-08 04:30N 37°57' E 023°35'0 0.0
2017-Dec-08 04:00N 37°57' E 023°35'0 0.0
2017-Dec-08 03:30N 37°57' E 023°35'0 0.0
2017-Dec-08 03:00N 37°57' E 023°35'0 0.0
2017-Dec-08 02:30N 37°57' E 023°35'0 0.0
2017-Dec-08 02:00N 37°57' E 023°35'0 0.0
2017-Dec-08 01:30N 37°57' E 023°35'0 0.0
2017-Dec-08 01:00N 37°57' E 023°35'0 0.0
2017-Dec-08 00:29N 37°57' E 023°35'0 0.0
2017-Dec-08 00:00N 37°57' E 023°35'0 0.0
2017-Dec-07 23:30N 37°57' E 023°35'2 4.2
2017-Dec-07 23:00N 37°55' E 023°37'0 0.8
2017-Dec-07 22:30N 37°55' E 023°37'0 0.8
2017-Dec-07 22:00N 37°55' E 023°36'1 1.7
2017-Dec-07 21:30N 37°54' E 023°35'2 4.0
2017-Dec-07 21:00N 37°53' E 023°33'2 2.9
2017-Dec-07 20:29N 37°52' E 023°32'0 0.0
2017-Dec-07 19:59N 37°52' E 023°32'0 0.0
2017-Dec-07 19:29N 37°52' E 023°32'0 0.1
2017-Dec-07 18:59N 37°52' E 023°32'0 0.0
2017-Dec-07 18:29N 37°52' E 023°32'0 0.0
2017-Dec-07 17:59N 37°52' E 023°32'0 0.0
2017-Dec-07 17:29N 37°52' E 023°32'0 0.0
2017-Dec-07 16:59N 37°52' E 023°32'0 0.0
2017-Dec-07 16:29N 37°52' E 023°32'0 0.0
2017-Dec-07 15:59N 37°52' E 023°32'0 0.0
2017-Dec-07 15:29N 37°52' E 023°32'0 0.0
2017-Dec-07 14:59N 37°52' E 023°32'0 0.1
2017-Dec-07 14:29N 37°52' E 023°32'0 0.0
2017-Dec-07 13:59N 37°52' E 023°32'0 0.0
2017-Dec-07 13:29N 37°52' E 023°32'0 0.1
2017-Dec-07 12:59N 37°52' E 023°32'0 0.0
2017-Dec-07 12:29N 37°52' E 023°32'0 0.0
2017-Dec-07 11:59N 37°52' E 023°32'0 0.0
2017-Dec-07 11:29N 37°52' E 023°32'0 0.0
2017-Dec-07 10:59N 37°52' E 023°32'0 0.1
2017-Dec-07 10:29N 37°52' E 023°32'0 0.0
2017-Dec-07 09:59N 37°52' E 023°32'0 0.0
2017-Dec-07 09:29N 37°52' E 023°32'0 0.0
2017-Dec-07 08:59N 37°52' E 023°32'0 0.0
2017-Dec-07 08:29N 37°52' E 023°32'0 0.2
2017-Dec-07 07:59N 37°52' E 023°32'0 0.1
2017-Dec-07 07:29N 37°52' E 023°32'0 0.0
2017-Dec-07 06:59N 37°52' E 023°32'0 0.0
2017-Dec-07 06:29N 37°52' E 023°32'0 0.0
2017-Dec-07 05:59N 37°52' E 023°32'0 0.0
2017-Dec-07 05:29N 37°52' E 023°32'0 0.1
2017-Dec-07 04:59N 37°52' E 023°32'0 0.0
2017-Dec-07 04:29N 37°52' E 023°32'0 0.0
2017-Dec-07 03:59N 37°52' E 023°32'0 0.1
2017-Dec-07 03:29N 37°52' E 023°32'0 0.0
2017-Dec-07 02:59N 37°52' E 023°32'0 0.0
2017-Dec-07 02:29N 37°52' E 023°32'0 0.1
2017-Dec-07 01:59N 37°52' E 023°32'0 0.1
2017-Dec-07 01:29N 37°52' E 023°32'0 0.0
2017-Dec-07 00:59N 37°52' E 023°32'0 0.0
2017-Dec-07 00:29N 37°52' E 023°32'0 0.0
2017-Dec-06 23:59N 37°52' E 023°32'0 0.0
2017-Dec-06 23:29N 37°52' E 023°32'0 0.0
2017-Dec-06 22:59N 37°52' E 023°32'0 0.0
2017-Dec-06 22:29N 37°52' E 023°32'0 0.0
2017-Dec-06 21:59N 37°52' E 023°32'0 0.0
2017-Dec-06 21:29N 37°52' E 023°32'0 0.0
2017-Dec-06 20:59N 37°52' E 023°32'  
2017-Dec-03 03:49N 38°08' E 025°46'412.4
2017-Dec-03 03:28N 38°04' E 025°46'612.2
2017-Dec-03 03:00N 37°58' E 025°46'612.5
2017-Dec-03 02:30N 37°52' E 025°46'612.9
2017-Dec-03 02:00N 37°45' E 025°45'712.8
2017-Dec-03 01:30N 37°39' E 025°45'612.6
2017-Dec-03 01:00N 37°33' E 025°45'712.3
2017-Dec-03 00:27N 37°26' E 025°45'512.0
2017-Dec-03 00:00N 37°21' E 025°44'611.8
2017-Dec-02 23:30N 37°15' E 025°45'612.2
2017-Dec-02 23:00N 37°09' E 025°45'612.3
2017-Dec-02 22:30N 37°02' E 025°44'612.4
2017-Dec-02 22:00N 36°56' E 025°44'612.6
2017-Dec-02 21:30N 36°50' E 025°43'612.3
2017-Dec-02 21:00N 36°44' E 025°40'612.0
2017-Dec-02 20:30N 36°39' E 025°37'612.1
2017-Dec-02 20:00N 36°33' E 025°36'612.2
2017-Dec-02 19:30N 36°27' E 025°35'612.4
2017-Dec-02 19:00N 36°21' E 025°34'612.4
2017-Dec-02 18:30N 36°15' E 025°32'612.3
2017-Dec-02 18:01N 36°09' E 025°29'612.1
2017-Dec-02 17:30N 36°03' E 025°26'611.2
2017-Dec-02 17:00N 35°58' E 025°23'611.4
2017-Dec-02 16:30N 35°53' E 025°21'611.7
2017-Dec-02 16:00N 35°47' E 025°18'611.8
2017-Dec-02 15:30N 35°42' E 025°16'611.8
2017-Dec-02 15:00N 35°36' E 025°13'612.3
2017-Dec-02 14:30N 35°31' E 025°10'612.0
2017-Dec-02 14:00N 35°25' E 025°09'4 8.4
2017-Dec-02 13:30N 35°21' E 025°09'0 0.1
2017-Dec-02 12:55N 35°21' E 025°09'0 0.0
2017-Dec-02 12:28N 35°21' E 025°09'0 0.0
2017-Dec-02 11:58N 35°21' E 025°09'0 0.0
2017-Dec-02 11:28N 35°21' E 025°09'0 0.0
2017-Dec-02 10:58N 35°21' E 025°09'0 0.0
2017-Dec-02 10:28N 35°21' E 025°09'0 0.0
2017-Dec-02 09:55N 35°21' E 025°09'0 0.0
2017-Dec-02 09:25N 35°21' E 025°09'0 0.0
2017-Dec-02 08:58N 35°21' E 025°09'0 0.0
2017-Dec-02 08:28N 35°21' E 025°09'0 0.0
2017-Dec-02 07:58N 35°21' E 025°09'0 0.0
2017-Dec-02 07:28N 35°21' E 025°09'0 0.0
2017-Dec-02 06:58N 35°21' E 025°09'0 0.0
2017-Dec-02 06:22N 35°21' E 025°09'0 0.0
2017-Dec-02 05:52N 35°21' E 025°09'0 0.0
2017-Dec-02 05:28N 35°21' E 025°09'0 0.0
2017-Dec-02 04:58N 35°21' E 025°09'0 0.0
2017-Dec-02 04:28N 35°21' E 025°09'0 0.0
2017-Dec-02 03:58N 35°21' E 025°09'0 0.0
2017-Dec-02 03:28N 35°21' E 025°09'0 0.0
2017-Dec-02 02:58N 35°21' E 025°09'0 0.0
2017-Dec-02 02:25N 35°21' E 025°09'0 0.0
2017-Dec-02 01:55N 35°21' E 025°09'0 0.0
2017-Dec-02 01:22N 35°21' E 025°09'0 0.0
2017-Dec-02 00:58N 35°21' E 025°09'0 0.0
2017-Dec-02 00:16N 35°21' E 025°09'0 0.0
2017-Dec-01 23:58N 35°21' E 025°09'0 0.0
2017-Dec-01 23:28N 35°21' E 025°09'0 0.0
2017-Dec-01 22:58N 35°21' E 025°09'0 0.0
2017-Dec-01 22:28N 35°21' E 025°09'0 0.0
2017-Dec-01 21:58N 35°21' E 025°09'0 0.0
2017-Dec-01 21:28N 35°21' E 025°09'0 0.0
2017-Dec-01 20:58N 35°21' E 025°09'0 0.0
2017-Dec-01 20:28N 35°21' E 025°09'0 0.0
2017-Dec-01 19:58N 35°21' E 025°09'0 0.0
2017-Dec-01 19:28N 35°21' E 025°09'0 0.0
2017-Dec-01 18:58N 35°21' E 025°09'0 0.0
2017-Dec-01 18:28N 35°21' E 025°09'0 0.0
2017-Dec-01 17:55N 35°21' E 025°09'0 0.0
2017-Dec-01 17:25N 35°21' E 025°09'  

Dump ship's entire track history